createdAt,value
2018-11-04T00:01:57.430Z,22.10
2018-11-04T00:04:25.437Z,23.57
2018-11-04T00:06:53.489Z,27.40
2018-11-04T00:09:21.575Z,33.00
2018-11-04T00:14:24.401Z,21.93
2018-11-04T00:16:52.487Z,23.27
2018-11-04T00:19:20.490Z,24.77
2018-11-04T00:21:48.542Z,30.37
2018-11-04T00:24:16.594Z,24.77
2018-11-04T00:26:44.733Z,35.30
2018-11-04T00:29:12.742Z,29.50
2018-11-04T00:31:40.802Z,26.33
2018-11-04T00:34:08.805Z,42.93
2018-11-04T00:36:36.849Z,23.63
2018-11-04T00:39:06.824Z,32.03
2018-11-04T00:41:34.878Z,28.40
2018-11-04T00:44:03.029Z,25.70
2018-11-04T00:46:31.042Z,27.30
2018-11-04T00:48:59.088Z,21.63
2018-11-04T00:51:27.090Z,26.07
2018-11-04T00:53:55.122Z,33.10
2018-11-04T00:56:23.272Z,26.70
2018-11-04T00:58:51.275Z,27.13
2018-11-04T01:01:19.329Z,28.10
2018-11-04T01:03:47.367Z,31.50
2018-11-04T01:06:15.385Z,32.90
2018-11-04T01:08:43.493Z,28.67
2018-11-04T01:11:11.447Z,34.77
2018-11-04T01:13:39.751Z,34.57
2018-11-04T01:16:07.759Z,35.70
2018-11-04T01:18:35.826Z,31.57
2018-11-04T01:21:03.890Z,32.77
2018-11-04T01:23:32.196Z,36.23
2018-11-04T01:26:00.207Z,37.23
2018-11-04T01:28:28.209Z,33.97
2018-11-04T01:30:56.242Z,43.97
2018-11-04T01:33:24.298Z,37.00
2018-11-04T01:35:52.367Z,36.30
2018-11-04T01:38:20.491Z,32.90
2018-11-04T01:40:48.802Z,37.57
2018-11-04T01:43:16.862Z,34.90
2018-11-04T01:45:44.886Z,35.33
2018-11-04T01:48:12.955Z,34.27
2018-11-04T01:50:40.971Z,41.10
2018-11-04T01:53:09.005Z,44.57
2018-11-04T01:55:37.289Z,35.70
2018-11-04T01:58:05.383Z,36.80
2018-11-04T02:00:33.454Z,46.73
2018-11-04T02:03:01.499Z,37.37
2018-11-04T02:05:29.530Z,35.90
2018-11-04T02:07:57.560Z,42.07
2018-11-04T02:10:25.608Z,44.93
2018-11-04T02:12:53.614Z,35.80
2018-11-04T02:15:21.620Z,42.63
2018-11-04T02:17:49.747Z,37.17
2018-11-04T02:20:17.746Z,42.30
2018-11-04T02:22:45.909Z,38.00
2018-11-04T02:25:14.503Z,33.30
2018-11-04T02:27:43.406Z,34.87
2018-11-04T02:30:14.865Z,43.00
2018-11-04T02:32:43.764Z,38.47
2018-11-04T02:35:12.170Z,40.60
2018-11-04T02:37:40.997Z,36.20
2018-11-04T02:40:09.178Z,30.30
2018-11-04T02:42:37.426Z,34.70
2018-11-04T02:45:06.048Z,33.87
2018-11-04T02:47:34.052Z,35.37
2018-11-04T02:50:02.102Z,38.70
2018-11-04T02:52:30.134Z,33.10
2018-11-04T02:54:58.141Z,36.77
2018-11-04T02:57:26.138Z,34.07
2018-11-04T02:59:54.174Z,41.13
2018-11-04T03:02:22.328Z,35.20
2018-11-04T03:04:50.373Z,36.03
2018-11-04T03:07:18.490Z,36.50
2018-11-04T03:09:46.491Z,36.27
2018-11-04T03:12:14.559Z,36.40
2018-11-04T03:14:42.562Z,37.73
2018-11-04T03:17:10.606Z,38.47
2018-11-04T03:19:38.619Z,36.80
2018-11-04T03:22:06.994Z,37.90
2018-11-04T03:24:35.196Z,40.23
2018-11-04T03:27:03.366Z,38.67
2018-11-04T03:29:31.760Z,39.80
2018-11-04T03:31:59.768Z,31.53
2018-11-04T03:34:27.777Z,34.77
2018-11-04T03:36:55.824Z,37.77
2018-11-04T03:39:23.897Z,43.93
2018-11-04T03:41:52.287Z,38.90
2018-11-04T03:44:20.289Z,41.17
2018-11-04T03:46:48.345Z,44.40
2018-11-04T03:49:16.429Z,43.83
2018-11-04T03:51:44.438Z,34.77
2018-11-04T03:54:13.038Z,37.90
2018-11-04T03:56:41.093Z,41.27
2018-11-04T03:59:09.127Z,38.80
2018-11-04T04:01:37.429Z,36.97
2018-11-04T04:04:05.570Z,37.37
2018-11-04T04:06:33.569Z,45.73
2018-11-04T04:09:02.029Z,40.27
2018-11-04T04:11:30.069Z,42.10
2018-11-04T04:13:58.178Z,46.33
2018-11-04T04:16:26.225Z,43.53
2018-11-04T04:18:54.226Z,39.13
2018-11-04T04:21:22.244Z,37.37
2018-11-04T04:23:50.640Z,36.93
2018-11-04T04:26:18.642Z,40.83
2018-11-04T04:28:46.715Z,43.80
2018-11-04T04:31:15.099Z,45.20
2018-11-04T04:33:43.098Z,36.63
2018-11-04T04:36:11.158Z,40.07
2018-11-04T04:38:39.243Z,38.33
2018-11-04T04:41:07.326Z,37.37
2018-11-04T04:43:35.415Z,39.70
2018-11-04T04:46:03.458Z,41.83
2018-11-04T04:48:31.462Z,42.47
2018-11-04T04:50:59.569Z,38.10
2018-11-04T04:53:27.615Z,40.90
2018-11-04T04:55:57.070Z,41.50
2018-11-04T04:58:25.148Z,45.67
2018-11-04T05:00:53.937Z,34.83
2018-11-04T05:03:22.554Z,45.97
2018-11-04T05:05:50.626Z,34.97
2018-11-04T05:08:18.630Z,40.60
2018-11-04T05:10:46.695Z,50.87
2018-11-04T05:13:14.730Z,42.90
2018-11-04T05:15:42.861Z,45.00
2018-11-04T05:18:10.878Z,38.60
2018-11-04T05:20:38.909Z,45.43
2018-11-04T05:23:07.322Z,43.13
2018-11-04T05:25:35.328Z,34.73
2018-11-04T05:28:03.365Z,38.73
2018-11-04T05:30:31.478Z,38.50
2018-11-04T05:32:59.520Z,41.60
2018-11-04T05:35:27.535Z,41.80
2018-11-04T05:37:55.624Z,48.70
2018-11-04T05:40:23.706Z,42.07
2018-11-04T05:42:51.786Z,38.07
2018-11-04T05:45:19.882Z,47.87
2018-11-04T05:47:47.882Z,48.33
2018-11-04T05:50:15.911Z,38.30
2018-11-04T05:52:43.918Z,34.07
2018-11-04T05:55:12.010Z,35.00
2018-11-04T05:57:40.091Z,48.90
2018-11-04T06:00:09.303Z,39.20
2018-11-04T06:02:37.396Z,40.20
2018-11-04T06:05:08.963Z,40.80
2018-11-04T06:07:37.342Z,42.03
2018-11-04T06:10:06.254Z,42.43
2018-11-04T06:12:34.426Z,49.80
2018-11-04T06:15:02.580Z,38.60
2018-11-04T06:17:30.606Z,44.93
2018-11-04T06:19:58.642Z,47.90
2018-11-04T06:22:26.662Z,42.40
2018-11-04T06:24:54.707Z,44.03
2018-11-04T06:27:22.765Z,51.57
2018-11-04T06:29:50.814Z,45.77
2018-11-04T06:32:18.858Z,41.83
2018-11-04T06:34:46.979Z,36.70
2018-11-04T06:37:14.969Z,35.63
2018-11-04T06:39:43.050Z,40.30
2018-11-04T06:42:11.156Z,47.73
2018-11-04T06:44:39.198Z,50.47
2018-11-04T06:47:07.261Z,39.13
2018-11-04T06:49:35.285Z,41.97
2018-11-04T06:52:03.331Z,45.80
2018-11-04T06:54:31.374Z,41.40
2018-11-04T06:56:59.433Z,47.23
2018-11-04T06:59:27.522Z,43.90
2018-11-04T07:01:55.614Z,50.03
2018-11-04T07:04:24.914Z,58.20
2018-11-04T07:06:53.109Z,48.27
2018-11-04T07:09:27.770Z,50.80
2018-11-04T07:11:56.238Z,56.20
2018-11-04T07:14:24.249Z,51.13
2018-11-04T07:16:52.301Z,61.70
2018-11-04T07:19:20.698Z,50.87
2018-11-04T07:21:48.778Z,61.53
2018-11-04T07:24:16.778Z,63.27
2018-11-04T07:26:44.818Z,56.30
2018-11-04T07:29:12.826Z,63.70
2018-11-04T07:31:40.873Z,70.40
2018-11-04T07:34:09.002Z,70.30
2018-11-04T07:36:37.030Z,62.03
2018-11-04T07:39:08.748Z,72.43
2018-11-04T07:41:36.782Z,67.57
2018-11-04T07:44:04.984Z,83.90
2018-11-04T07:46:32.933Z,83.03
2018-11-04T07:49:01.013Z,81.07
2018-11-04T07:51:29.111Z,60.77
2018-11-04T07:53:57.153Z,69.10
2018-11-04T07:56:25.190Z,74.30
2018-11-04T07:58:53.197Z,69.97
2018-11-04T08:01:21.233Z,74.40
2018-11-04T08:03:49.270Z,71.63
2018-11-04T08:06:17.315Z,66.43
2018-11-04T08:08:45.355Z,74.17
2018-11-04T08:11:13.742Z,64.77
2018-11-04T08:13:41.946Z,64.77
2018-11-04T08:16:09.905Z,65.60
2018-11-04T08:18:38.298Z,63.00
2018-11-04T08:21:06.406Z,72.13
2018-11-04T08:23:34.390Z,68.67
2018-11-04T08:26:02.443Z,71.20
2018-11-04T08:28:30.451Z,69.00
2018-11-04T08:30:58.634Z,58.53
2018-11-04T08:33:27.018Z,70.70
2018-11-04T08:35:55.098Z,80.73
2018-11-04T08:38:23.186Z,62.13
2018-11-04T08:40:51.238Z,64.60
2018-11-04T08:43:19.322Z,70.50
2018-11-04T08:45:47.503Z,67.27
2018-11-04T08:48:15.522Z,56.77
2018-11-04T08:50:43.569Z,65.53
2018-11-04T08:53:11.849Z,64.20
2018-11-04T08:55:40.078Z,63.80
2018-11-04T08:58:08.163Z,62.77
2018-11-04T09:00:36.218Z,69.70
2018-11-04T09:03:04.254Z,75.90
2018-11-04T09:05:32.675Z,71.10
2018-11-04T09:08:00.790Z,68.43
2018-11-04T09:10:28.893Z,64.00
2018-11-04T09:12:56.980Z,68.90
2018-11-04T09:15:25.366Z,60.53
2018-11-04T09:17:53.546Z,58.13
2018-11-04T09:20:21.566Z,72.80
2018-11-04T09:22:49.717Z,72.47
2018-11-04T09:25:17.805Z,61.30
2018-11-04T09:27:45.868Z,65.67
2018-11-04T09:30:15.297Z,62.43
2018-11-04T09:32:43.358Z,66.40
2018-11-04T09:35:14.486Z,65.73
2018-11-04T09:37:43.360Z,64.47
2018-11-04T09:40:13.271Z,65.63
2018-11-04T09:42:41.472Z,61.87
2018-11-04T09:45:10.301Z,66.90
2018-11-04T09:47:39.476Z,59.63
2018-11-04T09:50:09.070Z,59.00
2018-11-04T09:52:37.118Z,59.30
2018-11-04T09:55:06.114Z,64.47
2018-11-04T09:57:34.217Z,65.00
2018-11-04T10:00:02.660Z,62.80
2018-11-04T10:02:30.940Z,63.93
2018-11-04T10:04:58.996Z,62.10
2018-11-04T10:07:27.117Z,60.20
2018-11-04T10:09:55.504Z,59.43
2018-11-04T10:12:23.894Z,64.40
2018-11-04T10:14:52.574Z,65.33
2018-11-04T10:17:20.666Z,60.20
2018-11-04T10:19:48.931Z,61.87
2018-11-04T10:22:16.777Z,61.17
2018-11-04T10:24:45.092Z,59.40
2018-11-04T10:27:13.134Z,68.27
2018-11-04T10:29:41.201Z,60.67
2018-11-04T10:32:09.305Z,60.90
2018-11-04T10:34:37.338Z,64.77
2018-11-04T10:37:06.065Z,64.63
2018-11-04T10:39:34.167Z,61.43
2018-11-04T10:42:02.214Z,61.00
2018-11-04T10:44:30.329Z,53.17
2018-11-04T10:46:58.344Z,59.57
2018-11-04T10:49:26.434Z,58.93
2018-11-04T10:51:56.566Z,57.63
2018-11-04T10:54:24.626Z,62.17
2018-11-04T10:56:53.583Z,60.77
2018-11-04T10:59:21.670Z,55.67
2018-11-04T11:01:49.692Z,65.17
2018-11-04T11:04:17.829Z,62.83
2018-11-04T11:06:46.010Z,63.50
2018-11-04T11:09:14.254Z,64.03
2018-11-04T11:11:42.262Z,68.27
2018-11-04T11:14:10.519Z,59.50
2018-11-04T11:16:38.578Z,63.33
2018-11-04T11:19:06.727Z,62.00
2018-11-04T11:21:35.039Z,56.67
2018-11-04T11:24:03.123Z,66.83
2018-11-04T11:26:31.260Z,68.93
2018-11-04T11:28:59.339Z,64.83
2018-11-04T11:31:28.434Z,64.60
2018-11-04T11:33:56.634Z,63.67
2018-11-04T11:36:24.760Z,64.23
2018-11-04T11:38:52.853Z,66.97
2018-11-04T11:41:33.143Z,63.27
2018-11-04T11:44:01.251Z,65.10
2018-11-04T11:46:29.330Z,67.57
2018-11-04T11:48:57.390Z,63.63
2018-11-04T11:51:25.704Z,66.03
2018-11-04T11:53:53.767Z,62.23
2018-11-04T11:56:22.853Z,63.27
2018-11-04T11:58:50.950Z,66.50
2018-11-04T12:01:19.002Z,64.30
2018-11-04T12:03:47.122Z,78.13
2018-11-04T12:06:15.202Z,66.63
2018-11-04T12:08:43.258Z,64.67
2018-11-04T12:11:11.362Z,63.90
2018-11-04T12:13:39.787Z,66.50
2018-11-04T12:16:07.964Z,74.27
2018-11-04T12:18:35.983Z,62.30
2018-11-04T12:21:05.263Z,59.93
2018-11-04T12:23:33.318Z,55.27
2018-11-04T12:26:01.331Z,65.70
2018-11-04T12:28:29.410Z,63.60
2018-11-04T12:30:57.431Z,65.80
2018-11-04T12:33:25.577Z,60.10
2018-11-04T12:35:53.667Z,60.30
2018-11-04T12:38:21.734Z,69.80
2018-11-04T12:40:49.805Z,68.27
2018-11-04T12:43:17.849Z,62.53
2018-11-04T12:45:46.017Z,64.80
2018-11-04T12:48:14.066Z,59.27
2018-11-04T12:50:43.258Z,58.53
2018-11-04T12:53:11.371Z,72.70
2018-11-04T12:55:39.498Z,75.73
2018-11-04T12:58:07.634Z,70.90
2018-11-04T13:00:35.725Z,74.07
2018-11-04T13:03:04.121Z,70.93
2018-11-04T13:05:32.190Z,82.63
2018-11-04T13:08:00.282Z,75.83
2018-11-04T13:10:28.395Z,79.97
2018-11-04T13:12:56.415Z,71.07
2018-11-04T13:15:24.550Z,85.43
2018-11-04T13:17:52.673Z,80.43
2018-11-04T13:20:20.838Z,80.70
2018-11-04T13:22:48.898Z,74.43
2018-11-04T13:25:16.926Z,87.93
2018-11-04T13:27:44.990Z,75.17
2018-11-04T13:30:14.190Z,75.77
2018-11-04T13:32:42.264Z,82.07
2018-11-04T13:35:10.754Z,86.33
2018-11-04T13:37:38.844Z,76.37
2018-11-04T13:40:08.372Z,85.13
2018-11-04T13:42:36.758Z,87.93
2018-11-04T13:45:05.038Z,85.67
2018-11-04T13:47:33.234Z,77.53
2018-11-04T13:50:01.301Z,83.03
2018-11-04T13:52:29.360Z,83.77
2018-11-04T13:54:57.411Z,80.63
2018-11-04T13:57:25.432Z,79.90
2018-11-04T13:59:53.494Z,81.40
2018-11-04T14:02:21.594Z,87.77
2018-11-04T14:04:49.647Z,87.97
2018-11-04T14:07:17.675Z,91.03
2018-11-04T14:09:45.714Z,79.73
2018-11-04T14:12:13.734Z,87.97
2018-11-04T14:14:41.779Z,81.20
2018-11-04T14:17:09.797Z,84.87
2018-11-04T14:19:37.846Z,85.20
2018-11-04T14:22:05.874Z,77.93
2018-11-04T14:24:33.936Z,93.87
2018-11-04T14:27:02.371Z,84.17
2018-11-04T14:29:30.380Z,96.77
2018-11-04T14:31:58.502Z,95.60
2018-11-04T14:34:26.553Z,91.03
2018-11-04T14:36:54.606Z,80.47
2018-11-04T14:39:22.617Z,84.63
2018-11-04T14:41:50.669Z,83.47
2018-11-04T14:44:18.874Z,93.17
2018-11-04T14:46:46.892Z,86.53
2018-11-04T14:49:14.907Z,75.90
2018-11-04T14:51:42.982Z,82.30
2018-11-04T14:54:11.028Z,78.27
2018-11-04T14:56:39.323Z,81.13
2018-11-04T14:59:07.353Z,78.73
2018-11-04T15:01:35.528Z,91.33
2018-11-04T15:04:03.533Z,75.13
2018-11-04T15:06:31.538Z,73.10
2018-11-04T15:08:59.673Z,94.60
2018-11-04T15:11:28.170Z,78.57
2018-11-04T15:13:56.191Z,75.83
2018-11-04T15:16:24.400Z,71.53
2018-11-04T15:18:52.643Z,87.27
2018-11-04T15:21:20.574Z,80.90
2018-11-04T15:23:48.592Z,72.80
2018-11-04T15:26:16.681Z,78.43
2018-11-04T15:28:44.668Z,77.17
2018-11-04T15:31:12.690Z,74.67
2018-11-04T15:33:40.836Z,76.63
2018-11-04T15:36:08.890Z,67.40
2018-11-04T15:38:36.982Z,79.33
2018-11-04T15:41:05.453Z,76.73
2018-11-04T15:43:33.485Z,79.90
2018-11-04T15:46:03.503Z,71.67
2018-11-04T15:48:31.570Z,78.37
2018-11-04T15:50:59.780Z,76.93
2018-11-04T15:53:27.793Z,74.70
2018-11-04T15:55:55.838Z,74.13
2018-11-04T15:58:23.955Z,82.23
2018-11-04T16:00:51.969Z,94.87
2018-11-04T16:03:20.046Z,76.07
2018-11-04T16:05:48.139Z,79.87
2018-11-04T16:08:16.131Z,82.10
2018-11-04T16:10:44.178Z,75.37
2018-11-04T16:13:12.230Z,95.47
2018-11-04T16:15:40.245Z,65.07
2018-11-04T16:18:08.470Z,78.30
2018-11-04T16:20:36.549Z,74.97
2018-11-04T16:23:04.902Z,69.70
2018-11-04T16:25:33.048Z,66.93
2018-11-04T16:28:01.058Z,68.63
2018-11-04T16:30:29.070Z,72.93
2018-11-04T16:32:57.127Z,72.23
2018-11-04T16:35:25.134Z,57.40
2018-11-04T16:37:53.313Z,70.43
2018-11-04T16:40:21.367Z,64.63
2018-11-04T16:42:49.378Z,67.53
2018-11-04T16:45:17.413Z,65.63
2018-11-04T16:47:45.842Z,63.73
2018-11-04T16:50:14.691Z,62.83
2018-11-04T16:52:43.423Z,64.47
2018-11-04T16:55:12.486Z,55.30
2018-11-04T16:57:40.554Z,55.10
2018-11-04T17:00:09.421Z,62.83
2018-11-04T17:02:37.950Z,58.30
2018-11-04T17:05:06.839Z,56.60
2018-11-04T17:07:34.830Z,53.27
2018-11-04T17:10:02.985Z,57.37
2018-11-04T17:12:31.064Z,53.40
2018-11-04T17:14:59.073Z,67.73
2018-11-04T17:17:27.134Z,52.73
2018-11-04T17:19:55.150Z,53.33
2018-11-04T17:22:23.461Z,54.33
2018-11-04T17:24:51.572Z,43.87
2018-11-04T17:27:19.589Z,58.53
2018-11-04T17:29:47.641Z,48.53
2018-11-04T17:32:15.654Z,56.17
2018-11-04T17:34:43.705Z,52.03
2018-11-04T17:37:11.766Z,50.17
2018-11-04T17:39:39.772Z,52.87
2018-11-04T17:42:07.811Z,50.17
2018-11-04T17:44:36.007Z,57.63
2018-11-04T17:47:04.025Z,56.83
2018-11-04T17:49:32.125Z,58.90
2018-11-04T17:52:00.173Z,62.03
2018-11-04T17:54:28.223Z,59.87
2018-11-04T17:56:56.271Z,55.17
2018-11-04T17:59:24.330Z,57.53
2018-11-04T18:01:52.416Z,65.43
2018-11-04T18:04:20.477Z,61.47
2018-11-04T18:06:48.495Z,69.00
2018-11-04T18:09:16.554Z,68.27
2018-11-04T18:11:44.981Z,73.93
2018-11-04T18:14:12.992Z,71.67
2018-11-04T18:16:41.001Z,65.10
2018-11-04T18:19:09.074Z,68.83
2018-11-04T18:21:37.180Z,65.40
2018-11-04T18:24:05.208Z,75.80
2018-11-04T18:26:33.347Z,55.80
2018-11-04T18:29:01.298Z,74.97
2018-11-04T18:31:29.309Z,64.47
2018-11-04T18:33:57.384Z,57.47
2018-11-04T18:36:25.429Z,65.67
2018-11-04T18:38:53.442Z,74.57
2018-11-04T18:41:21.510Z,70.67
2018-11-04T18:43:49.794Z,70.27
2018-11-04T18:46:17.617Z,63.47
2018-11-04T18:48:45.641Z,62.17
2018-11-04T18:51:13.857Z,69.40
2018-11-04T18:53:41.983Z,68.60
2018-11-04T18:56:09.982Z,66.37
2018-11-04T18:58:38.051Z,74.20
2018-11-04T19:01:06.166Z,64.03
2018-11-04T19:03:34.164Z,59.13
2018-11-04T19:06:02.262Z,59.10
2018-11-04T19:08:30.301Z,58.47
2018-11-04T19:10:58.391Z,67.60
2018-11-04T19:13:26.369Z,73.60
2018-11-04T19:15:54.463Z,68.93
2018-11-04T19:18:22.542Z,63.63
2018-11-04T19:20:50.558Z,62.17
2018-11-04T19:23:18.657Z,70.60
2018-11-04T19:25:46.671Z,70.90
2018-11-04T19:28:14.815Z,56.43
2018-11-04T19:30:42.847Z,50.47
2018-11-04T19:33:10.893Z,67.23
2018-11-04T19:35:38.954Z,60.87
2018-11-04T19:38:06.975Z,69.50
2018-11-04T19:40:34.987Z,60.17
2018-11-04T19:43:03.151Z,64.83
2018-11-04T19:45:31.177Z,64.67
2018-11-04T19:47:59.241Z,64.80
2018-11-04T19:50:27.401Z,63.93
2018-11-04T19:52:55.514Z,58.47
2018-11-04T19:55:23.566Z,71.10
2018-11-04T19:57:51.577Z,62.90
2018-11-04T20:00:19.587Z,82.93
2018-11-04T20:02:47.902Z,72.40
2018-11-04T20:05:15.959Z,72.97
2018-11-04T20:07:43.946Z,65.33
2018-11-04T20:10:16.410Z,68.03
2018-11-04T20:13:47.821Z,74.83
2018-11-04T20:16:15.875Z,65.00
2018-11-04T20:18:49.325Z,73.57
2018-11-04T20:21:17.417Z,67.67
2018-11-04T20:23:45.493Z,81.70
2018-11-04T20:26:15.378Z,78.67
2018-11-04T20:28:43.448Z,83.37
2018-11-04T20:31:15.887Z,74.87
2018-11-04T20:33:44.059Z,78.43
2018-11-04T20:36:12.085Z,66.27
2018-11-04T20:38:45.683Z,68.07
2018-11-04T20:41:19.249Z,73.27
2018-11-04T20:43:47.626Z,73.63
2018-11-04T20:46:15.706Z,69.60
2018-11-04T20:48:49.285Z,65.53
2018-11-04T20:51:17.386Z,63.47
2018-11-04T20:53:45.529Z,63.53
2018-11-04T20:56:18.829Z,72.17
2018-11-04T20:58:46.862Z,68.17
2018-11-04T21:01:14.918Z,68.43
2018-11-04T21:03:42.997Z,61.27
2018-11-04T21:06:11.153Z,54.50
2018-11-04T21:08:39.520Z,69.80
2018-11-04T21:11:07.489Z,67.20
2018-11-04T21:13:35.497Z,62.63
2018-11-04T21:16:03.667Z,69.47
2018-11-04T21:18:31.609Z,69.53
2018-11-04T21:20:59.631Z,75.60
2018-11-04T21:23:27.669Z,64.47
2018-11-04T21:25:55.686Z,70.67
2018-11-04T21:28:23.891Z,63.97
2018-11-04T21:30:52.185Z,77.70
2018-11-04T21:33:20.251Z,62.70
2018-11-04T21:35:48.328Z,65.90
2018-11-04T21:38:16.378Z,77.30
2018-11-04T21:40:44.433Z,70.17
2018-11-04T21:43:12.672Z,72.50
2018-11-04T21:45:40.494Z,63.90
2018-11-04T21:48:08.571Z,74.20
2018-11-04T21:50:36.594Z,77.57
2018-11-04T21:53:04.840Z,75.57
2018-11-04T21:55:33.157Z,69.47
2018-11-04T21:58:00.980Z,62.77
2018-11-04T22:00:28.992Z,67.37
2018-11-04T22:02:57.240Z,65.00
2018-11-04T22:05:25.360Z,76.20
2018-11-04T22:07:53.377Z,77.33
2018-11-04T22:10:21.424Z,68.07
2018-11-04T22:12:49.458Z,81.73
2018-11-04T22:15:17.489Z,78.53
2018-11-04T22:17:45.545Z,71.90
2018-11-04T22:20:13.625Z,73.27
2018-11-04T22:22:41.710Z,84.13
2018-11-04T22:25:10.950Z,83.87
2018-11-04T22:27:38.997Z,89.87
2018-11-04T22:30:08.350Z,94.40
2018-11-04T22:32:36.783Z,89.57
2018-11-04T22:35:05.142Z,99.63
2018-11-04T22:37:33.226Z,81.83
2018-11-04T22:40:01.306Z,86.20
2018-11-04T22:42:29.374Z,81.83
2018-11-04T22:44:57.474Z,77.10
2018-11-04T22:47:25.490Z,85.07
2018-11-04T22:49:53.538Z,88.63
2018-11-04T22:52:21.600Z,95.20
2018-11-04T22:54:49.622Z,82.90
2018-11-04T22:57:17.696Z,79.10
2018-11-04T22:59:46.124Z,89.30
2018-11-04T23:02:14.117Z,96.47
2018-11-04T23:04:47.770Z,92.67
2018-11-04T23:07:15.869Z,106.60
2018-11-04T23:09:43.895Z,107.20
2018-11-04T23:12:11.945Z,96.43
2018-11-04T23:14:39.960Z,89.00
2018-11-04T23:17:08.079Z,98.30
2018-11-04T23:19:36.132Z,93.00
2018-11-04T23:22:04.189Z,98.70
2018-11-04T23:24:32.250Z,105.37
2018-11-04T23:27:00.391Z,102.63
2018-11-04T23:29:28.719Z,101.50
2018-11-04T23:31:56.783Z,92.50
2018-11-04T23:34:24.809Z,102.57
2018-11-04T23:36:52.852Z,85.13
2018-11-04T23:39:20.867Z,98.77
2018-11-04T23:41:48.888Z,101.83
2018-11-04T23:44:16.934Z,103.10
2018-11-04T23:46:46.187Z,95.20
2018-11-04T23:49:14.290Z,117.33
2018-11-04T23:51:42.321Z,92.57
2018-11-04T23:54:10.739Z,94.33
2018-11-04T23:56:38.845Z,82.93
2018-11-04T23:59:06.914Z,98.80
